Time;durP1;ratioP1;P1;durP2;ratioP2;P2;SDS_P1;SDS_P2;PMS_P1;PMS_P2;Temp;Humidity;BMP_temperature;BMP_pressure;BME280_temperature;BME280_humidity;BME280_pressure;Samples;Min_cycle;Max_cycle;Signal;HPM_P1;HPM_P2
2023/01/28 00:01:30;;;;;;;4.47;3.08;;;;;;;2.79;60.79;100864.72;10416847;28;20057;-64
2023/01/28 00:06:32;;;;;;;4.88;2.85;;;;;;;2.67;60.78;100857.13;10418353;28;20417;-64
2023/01/28 00:11:33;;;;;;;5.00;3.22;;;;;;;2.48;61.01;100868.59;10419261;28;20049;-63
2023/01/28 00:16:35;;;;;;;5.10;3.30;;;;;;;2.61;60.76;100863.25;10418536;28;20526;-64
2023/01/28 00:21:36;;;;;;;5.70;2.83;;;;;;;2.61;60.67;100860.66;10416673;28;20436;-64
2023/01/28 00:26:38;;;;;;;4.95;3.33;;;;;;;2.70;60.91;100860.53;10411802;28;20053;-63
2023/01/28 00:31:40;;;;;;;5.57;3.33;;;;;;;2.54;60.72;100863.34;10416370;28;20492;-64
2023/01/28 00:36:42;;;;;;;5.55;3.28;;;;;;;2.61;60.75;100865.81;10418268;28;20479;-64
2023/01/28 00:41:44;;;;;;;5.88;3.72;;;;;;;2.81;61.03;100862.97;10416731;28;20048;-63
2023/01/28 00:46:46;;;;;;;5.10;3.20;;;;;;;2.90;60.61;100860.28;10416704;28;20064;-64
2023/01/28 00:51:47;;;;;;;5.75;3.50;;;;;;;2.86;60.56;100859.47;10416034;28;20060;-63
2023/01/28 00:56:49;;;;;;;5.68;3.67;;;;;;;2.79;60.61;100859.56;10415830;28;20418;-63
2023/01/28 01:01:51;;;;;;;6.88;3.53;;;;;;;2.73;60.63;100863.06;10412585;28;20049;-64
2023/01/28 01:06:52;;;;;;;4.32;3.00;;;;;;;2.63;60.60;100863.22;10417555;28;20048;-64
2023/01/28 01:11:54;;;;;;;5.43;3.50;;;;;;;2.66;60.54;100856.28;10417356;28;20045;-63
2023/01/28 01:16:56;;;;;;;6.63;3.33;;;;;;;2.70;60.62;100855.34;10417146;28;20045;-63
2023/01/28 01:21:58;;;;;;;7.38;3.40;;;;;;;2.66;60.47;100853.69;10417607;28;20343;-64
2023/01/28 01:26:59;;;;;;;5.97;3.05;;;;;;;2.67;60.37;100857.13;10416087;28;21515;-64
2023/01/28 01:32:01;;;;;;;5.05;3.03;;;;;;;2.67;60.75;100850.25;10416744;28;20045;-64
2023/01/28 01:37:05;;;;;;;5.68;2.97;;;;;;;2.61;60.35;100852.06;10415706;28;20072;-64
2023/01/28 01:42:13;;;;;;;9.10;3.38;;;;;;;2.65;60.55;100858.88;10415749;28;20049;-63
2023/01/28 01:47:17;;;;;;;5.85;3.72;;;;;;;2.69;60.62;100863.13;10419916;28;20049;-64
2023/01/28 01:52:25;;;;;;;5.35;3.38;;;;;;;2.66;60.34;100858.84;10419753;28;20060;-64
2023/01/28 01:57:31;;;;;;;6.75;3.17;;;;;;;2.41;60.55;100859.19;10416684;28;20052;-64
2023/01/28 02:02:37;;;;;;;5.75;3.08;;;;;;;2.65;60.38;100861.47;10415867;28;20599;-64
2023/01/28 02:07:39;;;;;;;5.10;2.78;;;;;;;2.59;59.82;100854.66;10415325;28;20041;-64
2023/01/28 02:12:51;;;;;;;4.25;2.75;;;;;;;2.42;59.69;100859.16;10414911;28;20044;-63
2023/01/28 02:17:53;;;;;;;5.72;3.17;;;;;;;2.61;60.30;100859.78;10422898;28;20040;-63
2023/01/28 02:23:13;;;;;;;4.82;3.10;;;;;;;2.70;59.90;100865.69;10423197;28;20412;-63
2023/01/28 02:28:43;;;;;;;5.13;2.90;;;;;;;2.56;59.89;100861.59;10428703;28;20060;-64
2023/01/28 02:34:08;;;;;;;5.35;3.15;;;;;;;2.36;59.65;100866.97;10427860;28;20324;-63
2023/01/28 02:39:15;;;;;;;5.18;2.97;;;;;;;2.49;60.02;100870.28;10422321;28;20401;-64
2023/01/28 02:44:17;;;;;;;5.70;3.17;;;;;;;2.71;59.84;100872.56;10422089;28;20061;-63
2023/01/28 02:49:33;;;;;;;5.40;2.95;;;;;;;2.79;59.72;100877.63;10420723;28;20841;-64
2023/01/28 02:54:54;;;;;;;4.40;2.70;;;;;;;2.58;58.59;100880.50;10422052;28;20742;-63
2023/01/28 02:59:55;;;;;;;5.50;2.60;;;;;;;2.49;59.59;100894.38;10421735;28;20049;-63
2023/01/28 03:05:21;;;;;;;7.65;2.85;;;;;;;2.39;59.11;100899.66;10427001;28;20048;-63
2023/01/28 03:10:26;;;;;;;5.40;2.53;;;;;;;2.06;60.22;100911.19;10429835;28;20045;-64
2023/01/28 03:37:02;;;;;;;4.57;2.85;;;;;;;2.13;59.87;100916.25;10428597;28;20144;-63
2023/01/28 03:42:07;;;;;;;4.40;2.72;;;;;;;2.26;59.73;100921.28;10427342;28;20052;-63
2023/01/28 03:47:10;;;;;;;5.60;3.03;;;;;;;2.26;59.70;100929.03;10426533;28;20067;-63
2023/01/28 03:52:12;;;;;;;3.60;2.40;;;;;;;2.07;59.64;100923.22;10427904;28;20045;-63
2023/01/28 03:57:19;;;;;;;4.32;2.60;;;;;;;1.98;59.53;100943.94;10426398;28;20452;-64
2023/01/28 04:02:22;;;;;;;4.55;2.70;;;;;;;1.86;59.67;100938.88;10424384;28;20079;-64
2023/01/28 04:07:23;;;;;;;9.23;2.92;;;;;;;1.91;59.93;100935.38;10421473;28;20052;-63
2023/01/28 04:12:25;;;;;;;5.18;2.92;;;;;;;1.77;60.06;100938.94;10419738;28;20064;-63
2023/01/28 04:17:27;;;;;;;4.45;3.17;;;;;;;1.79;59.99;100934.63;10418837;28;20055;-64
2023/01/28 04:22:28;;;;;;;5.45;3.38;;;;;;;1.79;59.90;100939.78;10420329;28;20049;-63
2023/01/28 04:27:30;;;;;;;5.45;3.00;;;;;;;1.74;60.03;100934.69;10419672;28;20408;-63
2023/01/28 04:32:31;;;;;;;4.80;3.10;;;;;;;1.82;59.87;100939.78;10417166;28;20053;-63
2023/01/28 04:37:33;;;;;;;6.53;3.30;;;;;;;1.84;59.95;100936.31;10417414;28;20418;-63
2023/01/28 04:42:35;;;;;;;5.38;3.20;;;;;;;1.93;59.76;100940.56;10417655;28;20060;-63
2023/01/28 04:47:36;;;;;;;4.63;3.13;;;;;;;2.04;59.70;100947.31;10416660;28;20513;-63
2023/01/28 04:52:38;;;;;;;4.68;3.28;;;;;;;1.93;59.71;100946.53;10419955;28;20067;-64
2023/01/28 04:57:40;;;;;;;5.10;3.30;;;;;;;1.92;59.75;100944.00;10417958;28;20412;-63
2023/01/28 05:02:41;;;;;;;5.07;2.97;;;;;;;1.87;59.61;100940.63;10418826;28;20072;-64
2023/01/28 05:07:49;;;;;;;5.40;3.22;;;;;;;1.87;59.59;100941.44;10415955;28;20040;-63
2023/01/28 05:12:50;;;;;;;5.65;3.45;;;;;;;1.98;59.52;100947.38;10417782;28;20045;-63
2023/01/28 05:17:55;;;;;;;5.65;3.47;;;;;;;2.07;59.16;100946.44;10417217;28;20053;-63
2023/01/28 05:22:56;;;;;;;6.07;3.65;;;;;;;2.03;59.57;100948.19;10416817;28;20048;-64
2023/01/28 05:27:58;;;;;;;6.82;4.00;;;;;;;2.26;59.65;100945.38;10417443;28;20041;-63
2023/01/28 05:33:00;;;;;;;9.05;3.60;;;;;;;2.37;59.36;100955.59;10416722;28;20045;-64
2023/01/28 05:38:02;;;;;;;7.05;3.83;;;;;;;2.45;59.28;100967.56;10415891;28;20532;-63
2023/01/28 05:43:03;;;;;;;4.93;3.20;;;;;;;2.47;59.05;100965.84;10415507;28;20405;-64
2023/01/28 05:48:05;;;;;;;7.35;3.70;;;;;;;2.50;58.80;100968.38;10424326;28;20053;-63
2023/01/28 05:53:08;;;;;;;7.10;3.40;;;;;;;2.34;58.66;100979.72;10424467;28;20064;-63
2023/01/28 05:58:09;;;;;;;5.25;3.40;;;;;;;2.10;58.79;100983.38;10426525;28;20044;-64
2023/01/28 06:03:12;;;;;;;6.68;3.70;;;;;;;2.15;59.13;100980.78;10423170;28;20053;-64
2023/01/28 06:08:13;;;;;;;6.10;3.92;;;;;;;2.35;58.97;100986.59;10424387;28;20067;-63
2023/01/28 06:13:15;;;;;;;7.15;4.10;;;;;;;2.41;59.21;100980.53;10423112;28;20053;-64
2023/01/28 06:18:16;;;;;;;7.47;4.22;;;;;;;2.36;58.87;100993.47;10423945;28;20048;-64
2023/01/28 06:23:18;;;;;;;6.18;4.20;;;;;;;2.46;58.92;100982.19;10424507;28;20049;-64
2023/01/28 06:28:20;;;;;;;7.05;4.22;;;;;;;2.55;58.89;100995.00;10424770;28;20304;-63
2023/01/28 06:33:23;;;;;;;5.75;3.53;;;;;;;2.57;58.67;100993.25;10428194;28;20053;-63
2023/01/28 06:38:24;;;;;;;6.47;3.90;;;;;;;2.56;58.77;101006.19;10420509;28;20507;-64
2023/01/28 06:43:29;;;;;;;6.82;3.67;;;;;;;2.41;59.02;101006.34;10422592;28;20083;-64
2023/01/28 06:48:31;;;;;;;6.38;3.70;;;;;;;2.37;59.44;101020.16;10422040;28;20045;-63
2023/01/28 06:53:33;;;;;;;6.82;3.30;;;;;;;2.25;59.71;101010.78;10423518;28;20523;-64
2023/01/28 06:58:34;;;;;;;5.28;3.20;;;;;;;2.22;59.44;101013.38;10424318;28;20413;-64
2023/01/28 07:03:36;;;;;;;6.03;3.63;;;;;;;2.16;59.59;101029.78;10423459;28;20045;-64
2023/01/28 07:08:38;;;;;;;5.30;3.38;;;;;;;2.15;59.10;101030.63;10421589;28;20075;-64
2023/01/28 07:13:40;;;;;;;5.82;3.00;;;;;;;2.01;58.80;101036.81;10422662;28;20056;-63
2023/01/28 07:18:42;;;;;;;4.93;2.50;;;;;;;1.97;58.50;101042.84;10414149;28;20067;-64
2023/01/28 07:23:43;;;;;;;3.03;2.00;;;;;;;1.81;58.01;101046.38;10413941;28;20049;-64
2023/01/28 07:28:45;;;;;;;4.97;2.42;;;;;;;1.83;57.79;101053.25;10416266;28;20220;-64
2023/01/28 07:33:46;;;;;;;3.45;2.03;;;;;;;1.84;57.70;101043.78;10418840;28;20072;-64
2023/01/28 07:38:48;;;;;;;2.92;1.67;;;;;;;1.89;57.11;101042.06;10414613;28;20065;-64
2023/01/28 07:43:50;;;;;;;2.15;1.38;;;;;;;1.82;56.46;101043.81;10419718;28;20045;-64
2023/01/28 07:48:51;;;;;;;3.50;1.50;;;;;;;1.84;56.25;101049.81;10414171;28;20041;-64
2023/01/28 07:53:53;;;;;;;5.28;1.55;;;;;;;1.85;55.53;101053.22;10421273;28;20045;-64
2023/01/28 07:58:55;;;;;;;1.55;1.10;;;;;;;1.83;55.57;101053.25;10413092;28;20072;-64
2023/01/28 08:03:56;;;;;;;2.75;1.40;;;;;;;1.92;54.76;101050.63;10418334;28;20051;-64
2023/01/28 08:08:58;;;;;;;2.47;1.30;;;;;;;1.89;55.01;101057.53;10417893;28;20209;-64
2023/01/28 08:14:00;;;;;;;1.35;1.02;;;;;;;1.75;54.39;101055.00;10419069;28;20139;-64
2023/01/28 08:19:01;;;;;;;2.28;1.10;;;;;;;1.82;54.73;101048.97;10419148;28;20041;-64
2023/01/28 08:24:03;;;;;;;3.05;1.30;;;;;;;1.91;54.17;101056.63;10418712;28;20059;-64
2023/01/28 08:29:06;;;;;;;1.50;1.00;;;;;;;1.91;53.91;101064.38;10419144;28;20052;-64
2023/01/28 08:34:07;;;;;;;1.63;1.30;;;;;;;2.07;53.63;101073.72;10411822;28;20045;-64
2023/01/28 08:39:09;;;;;;;1.75;1.20;;;;;;;2.21;53.52;101071.06;10418653;28;20416;-64
2023/01/28 08:44:10;;;;;;;1.38;1.20;;;;;;;2.08;53.57;101083.19;10416025;28;20052;-64
2023/01/28 08:49:12;;;;;;;3.55;1.20;;;;;;;2.00;52.79;101090.13;10416979;28;20045;-64
2023/01/28 08:54:14;;;;;;;1.45;1.15;;;;;;;1.95;53.65;101083.28;10415101;28;20053;-64
2023/01/28 08:59:16;;;;;;;1.65;1.00;;;;;;;2.20;53.40;101089.97;10416252;28;20748;-64
2023/01/28 09:04:17;;;;;;;1.27;1.00;;;;;;;2.20;53.20;101079.63;10417428;28;20505;-64
2023/01/28 09:09:19;;;;;;;1.60;1.17;;;;;;;1.98;53.17;101098.72;10415062;28;20060;-64
2023/01/28 09:14:21;;;;;;;1.98;1.30;;;;;;;2.06;52.92;101092.66;10415855;28;20049;-64
2023/01/28 09:19:22;;;;;;;2.28;1.20;;;;;;;1.81;52.72;101103.97;10418522;28;20041;-64
2023/01/28 09:24:24;;;;;;;1.55;1.10;;;;;;;1.96;52.87;101092.72;10421791;28;20045;-64
2023/01/28 09:29:26;;;;;;;3.03;1.30;;;;;;;2.30;52.79;101091.59;10426530;28;20323;-64
2023/01/28 09:34:28;;;;;;;2.58;1.35;;;;;;;2.54;52.63;101108.66;10423271;28;20059;-64
2023/01/28 09:39:30;;;;;;;2.42;1.45;;;;;;;2.66;52.56;101100.78;10424701;28;20053;-64
2023/01/28 09:44:52;;;;;;;2.40;1.35;;;;;;;2.60;52.35;101104.25;10423833;28;20048;-64
2023/01/28 09:49:58;;;;;;;2.47;1.20;;;;;;;2.38;52.13;101110.47;10426106;28;20053;-64
2023/01/28 09:55:32;;;;;;;2.22;1.30;;;;;;;2.54;52.96;101112.06;10423507;28;20049;-64
2023/01/28 10:00:45;;;;;;;3.13;1.55;;;;;;;2.64;51.98;101128.34;10388919;28;20293;-64
2023/01/28 10:05:50;;;;;;;2.72;1.42;;;;;;;2.79;52.36;101131.66;10424659;28;20037;-64
2023/01/28 10:11:10;;;;;;;2.05;1.55;;;;;;;2.80;51.57;101142.84;10421661;28;20045;-64
2023/01/28 10:16:23;;;;;;;4.70;1.40;;;;;;;2.54;51.79;101142.22;10419749;28;20049;-64
2023/01/28 10:21:32;;;;;;;2.22;1.30;;;;;;;2.43;52.17;101146.59;10421979;28;20048;-65
2023/01/28 10:26:38;;;;;;;2.80;1.33;;;;;;;2.99;53.59;101141.78;10425181;28;20060;-63
2023/01/28 10:31:56;;;;;;;3.67;1.42;;;;;;;3.03;51.10;101140.88;10427737;28;20460;-63
2023/01/28 10:36:58;;;;;;;3.58;1.55;;;;;;;2.68;51.32;101148.94;10418020;28;20052;-63
2023/01/28 10:41:59;;;;;;;2.60;1.40;;;;;;;2.68;51.42;101156.69;10417981;28;20056;-63
2023/01/28 10:47:09;;;;;;;2.88;1.30;;;;;;;2.86;50.82;101145.38;10417585;28;20060;-63
2023/01/28 10:52:13;;;;;;;2.35;1.30;;;;;;;2.69;50.37;101147.22;10416877;28;20457;-63
2023/01/28 10:57:17;;;;;;;3.70;1.30;;;;;;;2.42;50.67;101153.47;10416164;28;20067;-63
2023/01/28 11:02:27;;;;;;;2.05;1.23;;;;;;;2.38;50.45;101149.19;10407602;28;20067;-63
2023/01/28 11:07:29;;;;;;;3.00;1.50;;;;;;;2.62;51.03;101140.44;10409943;28;20048;-63
2023/01/28 11:12:31;;;;;;;3.25;1.40;;;;;;;2.36;50.83;101150.94;10411235;28;20045;-63
2023/01/28 11:17:37;;;;;;;3.00;1.50;;;;;;;2.60;50.78;101144.75;10408044;28;20056;-63
2023/01/28 11:22:41;;;;;;;2.58;1.30;;;;;;;2.56;50.88;101146.47;10412089;28;20385;-63
2023/01/28 11:27:51;;;;;;;4.20;1.50;;;;;;;2.68;50.44;101135.22;10416018;28;20056;-63
2023/01/28 11:33:17;;;;;;;3.15;1.45;;;;;;;2.72;48.34;101139.47;10414068;28;20276;-63
2023/01/28 11:38:22;;;;;;;4.15;1.52;;;;;;;3.21;49.94;101134.69;10410984;28;20299;-63
2023/01/28 11:43:26;;;;;;;2.47;1.30;;;;;;;3.10;48.72;101136.50;10418320;28;20048;-62
2023/01/28 11:48:57;;;;;;;3.30;1.67;;;;;;;3.33;47.14;101119.03;10419926;28;20421;-63
2023/01/28 11:54:30;;;;;;;2.70;1.40;;;;;;;3.22;47.64;101123.47;10418319;28;20118;-62
2023/01/28 11:59:42;;;;;;;2.30;1.50;;;;;;;3.41;48.17;101106.88;10416944;28;20084;-62
2023/01/28 12:05:15;;;;;;;4.85;1.60;;;;;;;3.47;46.86;101117.16;10419431;28;20083;-63
2023/01/28 12:10:35;;;;;;;1.83;1.30;;;;;;;3.55;48.25;101110.16;10417754;28;20053;-63
2023/01/28 12:15:56;;;;;;;3.13;1.73;;;;;;;3.49;46.29;101099.88;10415903;28;20040;-63
2023/01/28 12:21:09;;;;;;;2.85;1.80;;;;;;;3.59;47.22;101088.53;10412369;28;20053;-63
2023/01/28 12:26:15;;;;;;;4.03;1.73;;;;;;;3.79;46.96;101081.38;10417068;28;20132;-63
2023/01/28 12:31:36;;;;;;;3.80;1.70;;;;;;;4.04;46.82;101080.19;10410678;28;20797;-63
2023/01/28 12:37:15;;;;;;;3.37;1.60;;;;;;;3.62;45.16;101089.34;10411472;28;20056;-63
2023/01/28 12:42:44;;;;;;;4.30;1.60;;;;;;;3.60;45.00;101069.56;10413099;28;20052;-63
2023/01/28 12:48:19;;;;;;;2.30;1.50;;;;;;;3.32;44.97;101081.97;10412446;28;20414;-63
2023/01/28 12:53:39;;;;;;;2.58;1.55;;;;;;;3.36;46.71;101082.78;10409500;28;20049;-63
2023/01/28 12:59:03;;;;;;;2.55;1.60;;;;;;;3.11;45.33;101082.22;10417561;28;20053;-63
2023/01/28 13:04:17;;;;;;;4.95;1.80;;;;;;;3.09;45.88;101091.72;10417092;28;20485;-62
2023/01/28 13:09:24;;;;;;;3.95;1.70;;;;;;;3.13;47.00;101108.91;10425949;28;20426;-62
2023/01/28 13:14:32;;;;;;;4.22;1.90;;;;;;;3.09;46.51;101099.47;10418268;28;20067;-62
2023/01/28 13:19:40;;;;;;;2.67;1.67;;;;;;;3.57;46.95;101087.69;10420683;28;20794;-62
2023/01/28 13:24:41;;;;;;;3.50;1.80;;;;;;;3.60;46.88;101090.28;10417128;28;20048;-63
2023/01/28 13:29:47;;;;;;;3.08;1.80;;;;;;;3.71;46.15;101098.72;10415010;28;20366;-62
2023/01/28 13:34:57;;;;;;;2.72;1.83;;;;;;;3.22;45.73;101102.78;10417571;28;20558;-63
2023/01/28 13:40:05;;;;;;;3.50;1.50;;;;;;;3.03;47.05;101099.53;10411579;28;20051;-63
2023/01/28 13:45:20;;;;;;;3.40;1.92;;;;;;;3.15;46.52;101103.75;10413760;28;20044;-63
2023/01/28 13:50:24;;;;;;;3.97;1.90;;;;;;;3.13;47.05;101102.91;10412343;28;20056;-63
2023/01/28 13:55:35;;;;;;;3.13;1.80;;;;;;;2.88;47.69;101103.16;10414523;28;20337;-62
2023/01/28 14:00:45;;;;;;;3.35;1.80;;;;;;;3.27;47.74;101101.00;10412561;28;20134;-63
2023/01/28 14:06:09;;;;;;;3.72;2.20;;;;;;;3.53;47.27;101094.66;10415878;28;20049;-62
2023/01/28 14:11:39;;;;;;;4.55;2.10;;;;;;;3.59;46.67;101093.72;10416889;28;20053;-62
2023/01/28 14:16:51;;;;;;;3.95;2.08;;;;;;;3.63;47.13;101096.25;10408881;28;20060;-62
2023/01/28 14:21:52;;;;;;;;;;;;;;;3.34;46.81;101098.31;10416303;28;20045;-62
2023/01/28 14:27:04;;;;;;;4.00;2.00;;;;;;;3.19;46.49;101097.66;10417120;28;19959;-63
2023/01/28 14:32:13;;;;;;;3.67;2.25;;;;;;;3.17;47.15;101092.50;10424366;28;20048;-63
2023/01/28 14:37:19;;;;;;;3.38;2.03;;;;;;;3.26;46.72;101079.47;10422378;28;20256;-63
2023/01/28 14:42:36;;;;;;;3.15;1.90;;;;;;;3.23;46.22;101076.06;10417084;28;20040;-63
2023/01/28 14:47:56;;;;;;;3.40;2.00;;;;;;;3.12;46.39;101070.16;10420285;28;20056;-62
2023/01/28 14:53:22;;;;;;;2.67;1.75;;;;;;;2.91;46.47;101082.44;10415799;28;20045;-63
2023/01/28 14:58:32;;;;;;;3.42;2.05;;;;;;;2.81;47.59;101088.56;10419897;28;20417;-62
2023/01/28 15:03:34;;;;;;;3.28;2.10;;;;;;;3.04;47.66;101084.03;10419966;28;20044;-62
2023/01/28 15:08:36;;;;;;;3.75;2.08;;;;;;;3.19;46.65;101076.97;10417010;28;20238;-63
2023/01/28 15:13:47;;;;;;;4.07;2.03;;;;;;;3.03;46.73;101077.13;10423074;28;20378;-62
2023/01/28 15:18:50;;;;;;;2.55;1.75;;;;;;;3.03;47.36;101051.28;10418521;28;20060;-62
2023/01/28 15:23:59;;;;;;;6.35;2.30;;;;;;;2.65;47.19;101061.19;10417349;28;20049;-62
2023/01/28 15:29:01;;;;;;;3.83;2.08;;;;;;;2.39;47.96;101063.16;10420820;28;20098;-63
2023/01/28 15:34:11;;;;;;;4.97;2.20;;;;;;;2.31;48.44;101074.41;10418112;28;20710;-62
2023/01/28 15:39:24;;;;;;;3.13;2.07;;;;;;;2.15;48.18;101094.31;10418595;28;20041;-63
2023/01/28 15:44:32;;;;;;;5.15;2.40;;;;;;;2.05;48.70;101114.16;10416522;28;20288;-63
2023/01/28 15:49:40;;;;;;;6.22;2.40;;;;;;;2.06;49.07;101112.44;10420835;28;20040;-63
2023/01/28 15:54:47;;;;;;;4.95;2.67;;;;;;;2.16;48.97;101103.75;10419047;28;20379;-63
2023/01/28 15:59:50;;;;;;;8.43;3.15;;;;;;;2.17;49.09;101105.50;10421103;28;20060;-63
2023/01/28 16:04:59;;;;;;;6.03;3.13;;;;;;;2.22;49.80;101099.41;10420816;28;20485;-63
2023/01/28 16:10:03;;;;;;;5.30;2.97;;;;;;;2.28;49.67;101124.31;10426802;28;20333;-63
2023/01/28 16:15:06;;;;;;;5.57;3.30;;;;;;;2.31;50.09;101129.47;10417366;28;20456;-64
2023/01/28 16:20:20;;;;;;;6.30;3.28;;;;;;;2.26;50.21;101135.50;10418933;28;20049;-63
2023/01/28 16:25:33;;;;;;;5.85;3.53;;;;;;;2.15;50.08;101133.03;10418131;28;20048;-63
2023/01/28 16:30:36;;;;;;;6.13;3.00;;;;;;;1.99;49.82;101123.66;10416285;28;20228;-63
2023/01/28 16:35:38;;;;;;;6.93;3.05;;;;;;;1.99;49.54;101127.09;10418576;28;20057;-63
2023/01/28 16:41:00;;;;;;;6.22;3.25;;;;;;;2.07;50.22;101125.31;10417343;28;20083;-63
2023/01/28 16:46:01;;;;;;;9.65;3.10;;;;;;;2.08;50.08;101115.84;10418563;28;20474;-63
2023/01/28 16:51:04;;;;;;;5.63;2.90;;;;;;;1.96;50.15;101126.25;10412534;28;20045;-64
2023/01/28 16:56:08;;;;;;;7.07;3.30;;;;;;;1.78;50.38;101116.03;10412511;28;20059;-63
2023/01/28 17:01:29;;;;;;;6.45;3.40;;;;;;;1.71;50.80;101115.22;10411374;28;20134;-63
2023/01/28 17:06:31;;;;;;;4.43;2.85;;;;;;;1.63;51.17;101129.00;10417949;28;20048;-63
2023/01/28 17:11:34;;;;;;;5.65;3.22;;;;;;;1.50;51.85;101122.19;10410004;28;20448;-63
2023/01/28 17:16:37;;;;;;;8.88;4.85;;;;;;;1.41;51.88;101129.94;10416428;28;20053;-65
2023/01/28 17:21:39;;;;;;;8.77;5.50;;;;;;;1.31;52.33;101136.88;10416053;28;20180;-64
2023/01/28 17:26:40;;;;;;;8.82;5.60;;;;;;;1.30;52.39;101158.31;10415541;28;20049;-63
2023/01/28 17:31:42;;;;;;;10.43;6.70;;;;;;;1.01;53.47;101171.28;10416465;28;20114;-64
2023/01/28 17:36:44;;;;;;;12.63;6.40;;;;;;;0.88;53.92;101185.03;10414659;28;20097;-64
2023/01/28 17:41:46;;;;;;;9.82;5.90;;;;;;;0.89;53.77;101196.19;10416967;28;20207;-63
2023/01/28 17:46:47;;;;;;;10.75;4.40;;;;;;;0.85;53.22;101215.91;10422821;28;20045;-65
2023/01/28 17:51:49;;;;;;;10.68;5.68;;;;;;;0.97;53.71;101230.53;10421826;28;20045;-66
2023/01/28 17:56:51;;;;;;;14.50;9.60;;;;;;;1.13;53.32;101247.69;10417128;28;20405;-65
2023/01/28 18:01:53;;;;;;;15.98;6.65;;;;;;;1.32;53.19;101237.38;10415843;28;20045;-66
2023/01/28 18:06:55;;;;;;;10.88;6.03;;;;;;;1.34;53.04;101258.84;10421287;28;20049;-65
2023/01/28 18:11:56;;;;;;;7.78;4.82;;;;;;;1.35;53.11;101255.41;10418583;28;20033;-65
2023/01/28 18:16:58;;;;;;;8.25;5.45;;;;;;;1.36;53.32;101243.34;10410685;28;20049;-66
2023/01/28 18:22:00;;;;;;;10.77;6.00;;;;;;;1.35;52.95;101247.69;10419811;28;20041;-66
2023/01/28 18:27:02;;;;;;;10.70;6.80;;;;;;;1.45;53.20;101234.75;10414824;28;20055;-66
2023/01/28 18:32:05;;;;;;;9.10;6.55;;;;;;;1.46;53.20;101237.34;10421686;28;20055;-66
2023/01/28 18:37:08;;;;;;;10.05;5.72;;;;;;;1.38;52.93;101239.94;10415418;28;20063;-66
2023/01/28 18:42:10;;;;;;;9.75;6.60;;;;;;;1.46;53.03;101236.50;10419467;28;20056;-66
2023/01/28 18:47:12;;;;;;;10.02;6.75;;;;;;;1.33;52.96;101258.84;10419196;28;20051;-65
2023/01/28 18:52:14;;;;;;;8.93;6.10;;;;;;;1.30;53.29;101261.41;10416583;28;20065;-66
2023/01/28 18:57:15;;;;;;;9.57;6.57;;;;;;;1.37;53.40;101263.13;10422815;28;20049;-66
2023/01/28 19:02:17;;;;;;;10.15;6.95;;;;;;;1.43;52.78;101259.69;10419348;28;20139;-66
2023/01/28 19:07:19;;;;;;;10.63;6.80;;;;;;;1.21;53.38;101246.84;10415242;28;20146;-65
2023/01/28 19:12:21;;;;;;;9.65;6.85;;;;;;;1.25;53.22;101255.41;10414547;28;20049;-66
2023/01/28 19:17:23;;;;;;;11.32;6.72;;;;;;;1.26;53.10;101263.13;10398369;28;20683;-65
2023/01/28 19:22:24;;;;;;;12.48;6.25;;;;;;;1.17;52.96;101270.91;10399937;28;20045;-65
2023/01/28 19:27:26;;;;;;;9.85;6.45;;;;;;;1.08;53.18;101268.31;10414183;28;20048;-65
2023/01/28 19:32:27;;;;;;;8.65;6.80;;;;;;;1.13;53.54;101260.59;10421588;28;20068;-65
2023/01/28 19:37:29;;;;;;;12.70;6.72;;;;;;;1.09;53.66;101259.72;10417258;28;20056;-66
2023/01/28 19:42:31;;;;;;;9.43;6.88;;;;;;;1.03;53.67;101266.59;10418600;28;20197;-65
2023/01/28 19:47:33;;;;;;;9.85;7.00;;;;;;;0.96;53.89;101270.88;10416108;28;20135;-65
2023/01/28 19:52:36;;;;;;;10.27;7.38;;;;;;;0.76;54.03;101272.59;10419034;28;20208;-65
2023/01/28 19:57:38;;;;;;;11.13;6.72;;;;;;;0.77;54.38;101278.59;10412891;28;20508;-65
2023/01/28 20:02:39;;;;;;;11.93;7.93;;;;;;;0.77;54.40;101283.75;10419515;28;20053;-65
2023/01/28 20:07:41;;;;;;;11.85;7.22;;;;;;;0.68;54.45;101287.16;10417601;28;20091;-65
2023/01/28 20:12:43;;;;;;;9.18;7.03;;;;;;;0.67;54.62;101293.16;10417597;28;20493;-66
2023/01/28 20:17:44;;;;;;;8.43;6.63;;;;;;;0.74;54.98;101279.44;10414930;28;20076;-65
2023/01/28 20:22:46;;;;;;;10.02;6.93;;;;;;;0.68;54.87;101284.59;10419258;28;20041;-65
2023/01/28 20:27:48;;;;;;;11.35;7.40;;;;;;;0.59;54.83;101279.41;10416115;28;20052;-65
2023/01/28 20:32:50;;;;;;;12.73;7.97;;;;;;;0.43;54.95;101285.38;10419524;28;20049;-66
2023/01/28 20:37:51;;;;;;;14.50;9.98;;;;;;;0.35;55.02;101287.06;10416543;28;20390;-65
2023/01/28 20:42:53;;;;;;;12.15;8.25;;;;;;;0.12;55.84;101292.13;10420316;28;20052;-65
2023/01/28 20:47:54;;;;;;;15.50;9.25;;;;;;;0.02;55.47;101289.50;10407656;28;20056;-65
2023/01/28 20:52:56;;;;;;;12.10;8.30;;;;;;;-0.01;55.44;101294.66;10415865;28;20041;-65
2023/01/28 20:57:58;;;;;;;11.05;8.10;;;;;;;-0.01;55.43;101286.94;10418249;28;20049;-65
2023/01/28 21:02:59;;;;;;;11.80;8.95;;;;;;;0.01;55.70;101290.38;10416799;28;20056;-65
2023/01/28 21:08:01;;;;;;;12.40;8.80;;;;;;;-0.08;55.70;101291.19;10415906;28;20052;-65
2023/01/28 21:13:03;;;;;;;22.20;13.52;;;;;;;-0.19;55.29;101286.84;10421762;28;20044;-65
2023/01/28 21:18:05;;;;;;;13.13;8.90;;;;;;;-0.33;55.37;101292.75;10430453;28;20044;-65
2023/01/28 21:23:06;;;;;;;11.35;8.48;;;;;;;-0.40;55.57;101301.28;10430966;28;20441;-65
2023/01/28 21:28:14;;;;;;;12.18;8.45;;;;;;;-0.36;55.61;101303.03;10430543;28;20115;-65
2023/01/28 21:33:16;;;;;;;14.82;10.40;;;;;;;-0.21;55.90;101298.81;10428667;28;20060;-65
2023/01/28 21:38:17;;;;;;;12.60;8.95;;;;;;;-0.25;55.33;101299.66;10430606;28;20312;-65
2023/01/28 21:43:19;;;;;;;12.98;9.35;;;;;;;-0.15;55.21;101296.28;10428528;28;20049;-65
2023/01/28 21:48:21;;;;;;;12.20;9.60;;;;;;;-0.00;55.50;101291.19;10427754;28;20436;-65
2023/01/28 21:53:22;;;;;;;13.88;9.60;;;;;;;0.01;55.52;101285.22;10429289;28;20041;-65
2023/01/28 22:03:44;;;;;;;15.90;11.23;;;;;;;0.07;56.08;101288.69;10431740;28;20068;-66
2023/01/28 22:08:46;;;;;;;13.05;10.10;;;;;;;0.10;55.41;101282.66;10428489;28;20045;-65
2023/01/28 22:13:48;;;;;;;15.10;11.18;;;;;;;0.11;55.97;101285.28;10429731;28;20041;-66
2023/01/28 22:18:49;;;;;;;15.40;10.35;;;;;;;0.14;55.84;101284.41;10428850;28;20060;-65
2023/01/28 22:23:51;;;;;;;13.00;9.63;;;;;;;0.18;55.49;101273.31;10430634;28;20052;-65
2023/01/28 22:28:53;;;;;;;15.40;9.98;;;;;;;0.02;55.62;101271.50;10426172;28;20049;-65
2023/01/28 22:33:55;;;;;;;18.30;13.07;;;;;;;-0.02;55.86;101262.91;10424299;28;20041;-65
2023/01/28 22:38:56;;;;;;;15.43;10.98;;;;;;;-0.09;56.27;101265.47;10417476;28;20049;-65
2023/01/28 22:44:02;;;;;;;15.20;10.50;;;;;;;-0.11;55.91;101257.75;10422766;28;20413;-65
2023/01/28 22:49:04;;;;;;;13.40;10.55;;;;;;;-0.12;55.58;101250.00;10421558;28;20067;-65
2023/01/28 22:54:06;;;;;;;13.75;10.93;;;;;;;-0.25;55.78;101246.53;10421824;28;20049;-65
2023/01/28 22:59:08;;;;;;;15.27;11.32;;;;;;;-0.21;55.60;101256.00;10419005;28;20635;-65
2023/01/28 23:04:11;;;;;;;15.50;10.65;;;;;;;-0.34;55.68;101259.34;10420750;28;20417;-65
2023/01/28 23:09:12;;;;;;;13.45;10.23;;;;;;;-0.39;55.88;101264.44;10415655;28;20051;-65
2023/01/28 23:24:57;;;;;;;16.35;11.35;;;;;;;-0.20;55.86;101260.25;10418870;28;20402;-65
2023/01/28 23:29:58;;;;;;;14.85;11.20;;;;;;;-0.27;55.96;101267.94;10420371;28;20394;-65
2023/01/28 23:35:00;;;;;;;13.98;10.75;;;;;;;-0.36;55.95;101269.63;10414119;28;20414;-65
2023/01/28 23:40:02;;;;;;;17.42;11.05;;;;;;;-0.32;56.51;101271.34;10416307;28;20561;-65
2023/01/28 23:45:05;;;;;;;16.13;11.68;;;;;;;-0.11;56.70;101268.03;10421642;28;20559;-65
2023/01/28 23:50:07;;;;;;;16.92;11.35;;;;;;;0.04;56.28;101262.94;10419627;28;20492;-65
2023/01/28 23:55:09;;;;;;;18.10;12.77;;;;;;;-0.05;56.15;101272.34;10416902;28;20056;-65
